Skip Navigation LinksHome page > Weather > Current weather Skip Navigation Links

Current Weather

Sarh, Chad

For information only: do not use for flight planning or navigation.
Latest weather
Observation time Saturday, July 26, 2014 3:00 AM WAT
Local time Saturday, July 26, 2014 4:05 AM WAT
Flight conditions Visual Meteorological Conditions
Winds
Wind speed calm
Visibility 6.2 mi.
Present weather light thunderstorm with rain
Sky condition
Ceiling unlimited
Cloud layer scattered clouds 2,000 ft.
Cloud layer few clouds with cumulonimbus 5,000 ft.
Temperature 73°F
Dewpoint 68°F
Altimeter 29.91 in.Hg
Derived measurements
Relative humidity 83%
Density altitude 1255 ft.
METAR FTTA 260200Z 00000KT 9999 -TSRA SCT020 FEW050CB 23/20 Q1013

Settings

Location code

InnerDrive.Weather 4.0.5294.0 Release CLR 4.0.30319.34014
Copyright ©2014 Inner Drive Technology. All rights reserved. Portions Copyright ©1986-2014 David Braverman.

Find weather

Site navigation


Skip Navigation Links

Place info

Page info

PayPal - The safer, easier way to pay online!

Return home.

Copyright ©2014 Inner Drive Technology. Purveyors of fine, hand-crafted computer software. Page printed 2014-07-26T03:05:13 UTC.